Time;durP1;ratioP1;P1;durP2;ratioP2;P2;SDS_P1;SDS_P2;PMS_P1;PMS_P2;Temp;Humidity;BMP_temperature;BMP_pressure;BME280_temperature;BME280_humidity;BME280_pressure;Samples;Min_cycle;Max_cycle;Signal;HPM_P1;HPM_P2
2022/10/22 00:00:53;;;;;;;85.57;58.28;;;19.70;80.00;;;;;;4944446;28;85942;-58
2022/10/22 00:03:19;;;;;;;85.57;58.58;;;19.80;80.20;;;;;;4948119;28;85651;-57
2022/10/22 00:05:44;;;;;;;84.53;57.75;;;19.70;80.10;;;;;;4945554;28;85942;-58
2022/10/22 00:08:10;;;;;;;87.63;58.00;;;19.80;80.10;;;;;;4949622;28;85370;-58
2022/10/22 00:10:37;;;;;;;88.57;57.53;;;19.70;80.00;;;;;;4947240;28;85306;-56
2022/10/22 00:13:03;;;;;;;84.82;57.50;;;19.70;79.90;;;;;;4950728;28;85827;-57
2022/10/22 00:15:29;;;;;;;83.32;56.83;;;19.70;79.90;;;;;;4937367;28;87912;-59
2022/10/22 00:17:54;;;;;;;81.30;56.72;;;19.70;79.90;;;;;;4946499;28;88103;-57
2022/10/22 00:20:21;;;;;;;82.13;56.67;;;19.70;79.80;;;;;;4947060;28;87951;-59
2022/10/22 00:22:47;;;;;;;82.32;56.72;;;19.70;79.90;;;;;;4947695;28;86784;-56
2022/10/22 00:25:13;;;;;;;82.32;56.78;;;19.70;80.00;;;;;;4938849;28;86490;-57
2022/10/22 00:27:39;;;;;;;84.90;57.10;;;19.70;80.00;;;;;;4947983;28;85031;-59
2022/10/22 00:30:05;;;;;;;82.00;56.88;;;19.70;79.90;;;;;;4953317;28;85614;-59
2022/10/22 00:32:31;;;;;;;81.78;56.85;;;19.70;79.80;;;;;;4947481;28;85158;-58
2022/10/22 00:34:57;;;;;;;80.25;56.33;;;19.70;80.00;;;;;;4942697;28;88333;-58
2022/10/22 00:37:22;;;;;;;83.25;56.70;;;19.70;79.80;;;;;;4955646;28;88274;-56
2022/10/22 00:39:48;;;;;;;82.35;56.35;;;19.70;79.90;;;;;;4948489;28;89263;-58
2022/10/22 00:42:19;;;;;;;82.18;56.10;;;19.70;79.70;;;;;;4948949;28;85644;-58
2022/10/22 00:45:08;;;;;;;79.88;56.08;;;19.70;79.80;;;;;;4940393;28;85697;-56
2022/10/22 00:47:49;;;;;;;81.18;55.92;;;19.60;79.90;;;;;;4950892;28;86167;-57
2022/10/22 00:50:37;;;;;;;83.22;56.15;;;19.60;79.70;;;;;;4945659;28;85527;-58
2022/10/22 00:53:07;;;;;;;79.05;55.85;;;19.60;79.70;;;;;;4949502;28;86278;-58
2022/10/22 00:55:33;;;;;;;81.55;55.78;;;19.60;79.70;;;;;;4948788;28;86020;-57
2022/10/22 00:58:00;;;;;;;80.68;55.35;;;19.70;79.80;;;;;;4944806;28;85879;-56
2022/10/22 01:00:26;;;;;;;82.50;55.03;;;19.60;79.60;;;;;;4947069;28;85860;-57
2022/10/22 01:02:53;;;;;;;80.93;55.33;;;19.60;79.60;;;;;;4956737;28;85049;-58
2022/10/22 01:05:19;;;;;;;78.82;55.35;;;19.60;79.70;;;;;;4952314;28;88033;-58
2022/10/22 01:07:50;;;;;;;80.00;54.85;;;19.60;79.60;;;;;;4953313;28;85657;-58
2022/10/22 01:10:19;;;;;;;79.90;55.00;;;19.60;79.60;;;;;;4943894;28;90966;-58
2022/10/22 01:12:57;;;;;;;81.28;55.42;;;19.60;79.60;;;;;;4949062;28;88442;-58
2022/10/22 01:15:34;;;;;;;80.05;55.00;;;19.60;79.60;;;;;;4953838;28;89946;-58
2022/10/22 01:18:22;;;;;;;78.30;54.97;;;19.60;79.50;;;;;;4951117;28;85532;-59
2022/10/22 01:21:04;;;;;;;80.18;55.42;;;19.60;79.60;;;;;;4941473;28;88323;-58
2022/10/22 01:23:36;;;;;;;79.25;55.08;;;19.60;79.50;;;;;;4942693;28;85890;-57
2022/10/22 01:26:07;;;;;;;81.32;54.80;;;19.60;79.60;;;;;;4952952;28;85167;-57
2022/10/22 01:29:01;;;;;;;78.45;54.35;;;19.60;79.60;;;;;;4935118;28;88842;-58
2022/10/22 01:31:44;;;;;;;77.10;54.58;;;19.60;79.50;;;;;;4942901;28;85368;-57
2022/10/22 01:34:16;;;;;;;77.57;53.85;;;19.60;79.40;;;;;;4942846;28;85179;-57
2022/10/22 01:36:42;;;;;;;;;;;19.60;79.50;;;;;;4943745;28;86171;-59
2022/10/22 01:39:09;;;;;;;76.65;53.83;;;19.60;79.80;;;;;;4953304;28;86607;-58
2022/10/22 01:41:37;;;;;;;76.05;53.75;;;19.60;79.40;;;;;;4946007;28;85102;-58
2022/10/22 01:44:03;;;;;;;77.05;54.03;;;19.60;79.40;;;;;;4942752;28;89730;-58
2022/10/22 01:46:29;;;;;;;76.43;53.70;;;19.50;79.30;;;;;;4950583;28;85710;-57
2022/10/22 01:49:25;;;;;;;76.63;54.35;;;19.60;79.40;;;;;;4947590;28;85387;-57
2022/10/22 01:52:06;;;;;;;77.80;53.83;;;19.50;80.10;;;;;;4943708;28;85812;-57
2022/10/22 01:54:38;;;;;;;75.55;53.15;;;19.50;79.30;;;;;;4948648;28;85078;-58
2022/10/22 01:57:07;;;;;;;;;;;19.50;79.20;;;;;;4947103;28;92230;-58
2022/10/22 01:59:44;;;;;;;77.30;54.22;;;19.50;79.30;;;;;;4949774;28;85518;-59
2022/10/22 02:02:25;;;;;;;78.40;53.95;;;19.50;79.30;;;;;;4952624;28;85124;-58
2022/10/22 02:05:20;;;;;;;74.50;53.92;;;19.50;79.30;;;;;;4947550;28;85971;-58
2022/10/22 02:07:58;;;;;;;76.25;53.45;;;19.60;79.30;;;;;;4946456;28;85993;-58
2022/10/22 02:10:24;;;;;;;76.57;53.53;;;19.50;79.80;;;;;;4942859;28;86330;-56
2022/10/22 02:12:54;;;;;;;76.30;53.50;;;19.50;79.30;;;;;;4958787;28;85537;-58
2022/10/22 02:15:22;;;;;;;76.30;53.25;;;19.50;79.20;;;;;;4947105;28;86405;-59
2022/10/22 02:17:50;;;;;;;74.97;53.45;;;19.50;79.00;;;;;;4942662;28;86501;-58
2022/10/22 02:20:21;;;;;;;76.80;53.00;;;19.50;79.10;;;;;;4948335;28;87002;-58
2022/10/22 02:22:47;;;;;;;76.05;52.63;;;19.50;79.10;;;;;;4957957;28;85444;-57
2022/10/22 02:25:14;;;;;;;76.53;53.33;;;19.50;79.00;;;;;;4947341;28;85361;-57
2022/10/22 02:28:03;;;;;;;76.15;53.53;;;19.50;79.90;;;;;;4946397;28;90708;-56
2022/10/22 02:30:31;;;;;;;76.72;53.58;;;19.50;79.10;;;;;;4945408;28;88118;-57
2022/10/22 02:33:07;;;;;;;75.00;53.22;;;19.50;79.10;;;;;;4942982;28;85190;-56
2022/10/22 02:35:34;;;;;;;75.00;53.42;;;19.50;79.00;;;;;;4944364;28;86518;-57
2022/10/22 02:38:01;;;;;;;75.25;53.60;;;19.50;79.00;;;;;;4945426;28;85227;-58
2022/10/22 02:40:29;;;;;;;75.32;53.45;;;19.50;79.10;;;;;;4951294;28;87308;-57
2022/10/22 02:42:55;;;;;;;74.43;53.35;;;19.40;79.00;;;;;;4943038;28;87423;-58
2022/10/22 02:45:21;;;;;;;76.93;52.95;;;19.40;78.90;;;;;;4951612;28;85111;-58
2022/10/22 02:47:47;;;;;;;76.35;53.17;;;19.40;79.00;;;;;;4947177;28;88505;-58
2022/10/22 02:50:12;;;;;;;74.03;52.67;;;19.40;78.90;;;;;;4943703;28;86684;-58
2022/10/22 02:52:38;;;;;;;74.10;52.38;;;19.40;78.90;;;;;;4953827;28;85368;-57
2022/10/22 02:55:05;;;;;;;74.80;53.03;;;19.40;78.80;;;;;;4946800;28;87396;-58
2022/10/22 02:57:31;;;;;;;74.50;52.97;;;19.40;79.00;;;;;;4950720;28;85257;-58
2022/10/22 02:59:57;;;;;;;73.85;52.97;;;19.40;79.00;;;;;;4954749;28;86015;-59
2022/10/22 03:02:23;;;;;;;75.10;52.72;;;19.40;78.90;;;;;;4953020;28;85989;-59
2022/10/22 03:04:48;;;;;;;76.35;53.08;;;19.40;78.90;;;;;;4947641;28;85624;-58
2022/10/22 03:07:14;;;;;;;72.65;52.38;;;19.40;78.90;;;;;;4947935;28;86818;-58
2022/10/22 03:09:40;;;;;;;72.53;52.58;;;19.40;78.80;;;;;;4949459;28;92632;-59
2022/10/22 03:12:07;;;;;;;74.68;52.33;;;19.40;78.80;;;;;;4950480;28;85299;-59
2022/10/22 03:14:34;;;;;;;73.10;52.25;;;19.40;78.80;;;;;;4938853;28;87205;-58
2022/10/22 03:17:00;;;;;;;74.85;53.15;;;19.40;78.90;;;;;;4948518;28;85657;-56
2022/10/22 03:19:25;;;;;;;74.35;53.83;;;19.40;78.70;;;;;;4953509;28;86960;-58
2022/10/22 03:21:55;;;;;;;73.22;52.28;;;19.40;78.90;;;;;;4953647;28;85364;-58
2022/10/22 03:24:27;;;;;;;74.30;52.47;;;19.40;78.60;;;;;;4947695;28;91314;-58
2022/10/22 03:26:53;;;;;;;72.95;52.53;;;19.40;78.70;;;;;;4941325;28;88164;-58
2022/10/22 03:29:22;;;;;;;74.88;52.88;;;19.40;78.80;;;;;;4945631;28;85853;-58
2022/10/22 03:31:48;;;;;;;75.45;52.50;;;19.40;78.70;;;;;;4950443;28;85078;-58
2022/10/22 03:34:13;;;;;;;74.22;52.95;;;19.40;78.60;;;;;;4942336;28;85143;-57
2022/10/22 03:36:40;;;;;;;72.90;52.08;;;19.40;78.60;;;;;;4947980;28;85169;-58
2022/10/22 03:39:06;;;;;;;72.97;52.60;;;19.40;78.60;;;;;;4954003;28;86956;-58
2022/10/22 03:41:32;;;;;;;72.68;52.05;;;19.40;78.60;;;;;;4949883;28;86147;-58
2022/10/22 03:44:00;;;;;;;75.25;52.70;;;19.40;78.50;;;;;;4942356;28;85354;-58
2022/10/22 03:46:26;;;;;;;74.07;52.25;;;19.40;78.70;;;;;;4948960;28;85112;-58
2022/10/22 03:48:52;;;;;;;73.68;52.67;;;19.40;78.60;;;;;;4947525;28;86802;-58
2022/10/22 03:51:17;;;;;;;74.18;52.33;;;19.40;78.40;;;;;;4941521;28;88494;-55
2022/10/22 03:53:43;;;;;;;73.00;51.85;;;19.40;78.60;;;;;;4953896;28;85619;-57
2022/10/22 03:56:10;;;;;;;74.97;52.60;;;19.40;78.40;;;;;;4959354;28;85587;-56
2022/10/22 03:58:37;;;;;;;72.72;52.17;;;19.40;78.60;;;;;;4951244;28;85517;-58
2022/10/22 04:01:11;;;;;;;72.53;52.55;;;19.40;78.50;;;;;;4943023;28;85154;-57
2022/10/22 04:03:37;;;;;;;74.55;52.28;;;19.40;78.40;;;;;;4940111;28;91449;-56
2022/10/22 04:06:05;;;;;;;75.13;52.65;;;19.40;78.40;;;;;;4941691;28;88008;-57
2022/10/22 04:08:31;;;;;;;71.75;51.85;;;19.40;78.40;;;;;;4948661;28;86281;-56
2022/10/22 04:10:57;;;;;;;72.88;52.40;;;19.40;78.40;;;;;;4946568;28;85550;-59
2022/10/22 04:13:23;;;;;;;72.85;51.97;;;19.40;78.40;;;;;;4947815;28;87782;-58
2022/10/22 04:15:50;;;;;;;74.55;52.22;;;19.40;78.30;;;;;;4947725;28;85730;-57
2022/10/22 04:18:17;;;;;;;72.15;52.35;;;19.40;78.50;;;;;;4947808;28;85534;-58
2022/10/22 04:20:43;;;;;;;72.97;52.03;;;19.40;78.30;;;;;;4948067;28;86654;-56
2022/10/22 04:23:09;;;;;;;72.97;52.00;;;19.40;78.30;;;;;;4940938;28;85725;-58
2022/10/22 04:25:35;;;;;;;72.93;52.33;;;19.40;78.40;;;;;;4940868;28;92463;-57
2022/10/22 04:28:01;;;;;;;72.13;51.58;;;19.40;77.90;;;;;;4940444;28;88149;-56
2022/10/22 04:30:26;;;;;;;74.03;51.90;;;19.40;78.30;;;;;;4943021;28;88673;-58
2022/10/22 04:32:52;;;;;;;72.53;51.97;;;19.40;78.30;;;;;;4949851;28;85922;-57
2022/10/22 04:35:18;;;;;;;73.00;51.72;;;19.40;78.20;;;;;;4944864;28;85228;-57
2022/10/22 04:37:43;;;;;;;73.80;52.08;;;19.40;78.10;;;;;;4953799;28;85040;-58
2022/10/22 04:40:10;;;;;;;72.32;52.35;;;19.40;78.20;;;;;;4948034;28;85591;-58
2022/10/22 04:42:35;;;;;;;72.85;52.33;;;19.40;78.20;;;;;;4937199;28;88523;-59
2022/10/22 04:45:01;;;;;;;72.10;51.90;;;19.40;78.10;;;;;;4952734;28;87866;-57
2022/10/22 04:47:27;;;;;;;74.80;52.33;;;19.40;78.20;;;;;;4950504;28;85462;-58
2022/10/22 04:49:52;;;;;;;72.20;51.85;;;19.40;78.10;;;;;;4949076;28;85639;-58
2022/10/22 04:52:18;;;;;;;73.65;52.22;;;19.40;78.10;;;;;;4951453;28;85696;-56
2022/10/22 04:54:44;;;;;;;71.85;51.88;;;19.40;78.10;;;;;;4953276;28;86958;-58
2022/10/22 04:57:09;;;;;;;72.05;51.90;;;19.40;78.10;;;;;;4949376;28;85750;-56
2022/10/22 04:59:35;;;;;;;72.68;52.03;;;19.40;78.00;;;;;;4941344;28;85412;-57
2022/10/22 05:02:01;;;;;;;73.38;51.67;;;19.40;78.30;;;;;;4948850;28;86044;-57
2022/10/22 05:04:26;;;;;;;71.68;51.92;;;19.40;78.20;;;;;;4942275;28;87335;-57
2022/10/22 05:06:52;;;;;;;71.57;51.67;;;19.40;78.20;;;;;;4944487;28;85646;-58
2022/10/22 05:09:19;;;;;;;72.00;51.78;;;19.40;78.30;;;;;;4953010;28;85368;-58
2022/10/22 05:11:48;;;;;;;73.18;51.90;;;19.40;78.20;;;;;;4951070;28;84958;-56
2022/10/22 05:14:16;;;;;;;72.28;51.65;;;19.40;78.30;;;;;;4948462;28;86318;-57
2022/10/22 05:16:42;;;;;;;71.07;51.47;;;19.40;78.10;;;;;;4945970;28;89394;-58
2022/10/22 05:19:08;;;;;;;72.00;51.97;;;19.40;78.10;;;;;;4946557;28;90645;-56
2022/10/22 05:21:34;;;;;;;72.18;51.78;;;19.40;78.10;;;;;;4950406;28;88880;-57
2022/10/22 05:24:00;;;;;;;71.43;51.35;;;19.40;78.10;;;;;;4941474;28;85679;-58
2022/10/22 05:26:26;;;;;;;73.22;52.67;;;19.40;78.10;;;;;;4939563;28;85930;-58
2022/10/22 05:28:52;;;;;;;74.45;51.65;;;19.40;78.10;;;;;;4953899;28;85477;-57
2022/10/22 05:31:19;;;;;;;71.43;51.85;;;19.40;77.80;;;;;;4950966;28;85217;-58
2022/10/22 05:33:45;;;;;;;72.32;51.83;;;19.40;78.00;;;;;;4942140;28;85705;-58
2022/10/22 05:36:14;;;;;;;71.60;51.75;;;19.40;78.10;;;;;;4947870;28;85950;-57
2022/10/22 05:38:39;;;;;;;71.93;51.75;;;19.40;78.20;;;;;;4953287;28;85117;-58
2022/10/22 05:41:06;;;;;;;71.70;51.75;;;19.40;78.00;;;;;;4948685;28;85524;-58
2022/10/22 05:43:33;;;;;;;72.10;51.95;;;19.40;78.10;;;;;;4941717;28;86087;-58
2022/10/22 05:46:03;;;;;;;73.43;51.47;;;19.40;78.80;;;;;;4945426;28;85095;-58
2022/10/22 05:48:29;;;;;;;72.60;51.78;;;19.40;78.00;;;;;;4948247;28;90268;-55
2022/10/22 05:50:55;;;;;;;72.72;51.88;;;19.40;78.00;;;;;;4945897;28;85407;-58
2022/10/22 05:53:21;;;;;;;73.00;51.35;;;19.40;78.00;;;;;;4937926;28;85961;-58
2022/10/22 05:55:46;;;;;;;72.78;51.92;;;19.40;77.90;;;;;;4950207;28;88186;-57
2022/10/22 05:58:12;;;;;;;71.18;51.15;;;19.40;77.90;;;;;;4951480;28;85849;-56
2022/10/22 06:00:38;;;;;;;71.88;51.75;;;19.40;77.90;;;;;;4936403;28;87827;-57
2022/10/22 06:03:04;;;;;;;72.25;51.97;;;19.40;77.80;;;;;;4938665;28;90014;-54
2022/10/22 06:05:30;;;;;;;70.95;51.45;;;19.40;77.90;;;;;;4938349;28;85850;-57
2022/10/22 06:07:56;;;;;;;71.68;51.55;;;19.40;77.80;;;;;;4940006;28;87273;-58
2022/10/22 06:10:22;;;;;;;71.40;51.47;;;19.40;77.90;;;;;;4937484;28;87893;-57
2022/10/22 06:12:48;;;;;;;71.45;51.70;;;19.40;77.80;;;;;;4945070;28;87029;-57
2022/10/22 06:15:15;;;;;;;72.38;51.15;;;19.40;77.80;;;;;;4949341;28;86441;-58
2022/10/22 06:17:43;;;;;;;72.65;51.95;;;19.40;77.80;;;;;;4930397;28;89037;-58
2022/10/22 06:20:11;;;;;;;72.43;51.63;;;19.40;77.80;;;;;;4933604;28;86917;-57
2022/10/22 06:22:37;;;;;;;70.38;50.78;;;19.40;77.90;;;;;;4943889;28;88674;-55
2022/10/22 06:25:04;;;;;;;71.05;51.25;;;19.40;77.90;;;;;;4951147;28;85879;-57
2022/10/22 06:27:30;;;;;;;72.32;51.42;;;19.40;77.90;;;;;;4952140;28;86911;-57
2022/10/22 06:29:56;;;;;;;71.60;51.58;;;19.40;77.80;;;;;;4949175;28;88680;-55
2022/10/22 06:32:22;;;;;;;70.95;51.42;;;19.40;77.70;;;;;;4949261;28;86997;-57
2022/10/22 06:34:49;;;;;;;71.85;51.75;;;19.40;77.80;;;;;;4943602;28;87793;-57
2022/10/22 06:37:15;;;;;;;72.50;51.25;;;19.40;77.80;;;;;;4940930;28;86068;-58
2022/10/22 06:39:40;;;;;;;71.40;51.28;;;19.30;77.80;;;;;;4950057;28;85407;-57
2022/10/22 06:42:06;;;;;;;70.85;51.20;;;19.30;77.80;;;;;;4948934;28;89027;-58
2022/10/22 06:44:32;;;;;;;72.10;51.40;;;19.30;77.80;;;;;;4947039;28;85570;-58
2022/10/22 06:46:57;;;;;;;71.82;51.88;;;19.40;77.80;;;;;;4941676;28;88384;-58
2022/10/22 06:49:23;;;;;;;71.70;51.75;;;19.30;77.80;;;;;;4938762;28;87181;-57
2022/10/22 06:51:51;;;;;;;71.05;51.25;;;19.30;77.80;;;;;;4950875;28;85098;-58
2022/10/22 06:54:16;;;;;;;70.93;51.20;;;19.30;77.90;;;;;;4947805;28;87677;-58
2022/10/22 06:56:42;;;;;;;71.55;51.85;;;19.40;77.90;;;;;;4948392;28;87357;-59
2022/10/22 06:59:08;;;;;;;71.72;51.53;;;19.30;77.90;;;;;;4958271;28;86866;-58
2022/10/22 07:01:34;;;;;;;72.25;51.03;;;19.40;77.90;;;;;;4949356;28;86306;-57
2022/10/22 07:04:01;;;;;;;72.30;51.10;;;19.30;77.90;;;;;;4956079;28;85524;-59
2022/10/22 07:06:28;;;;;;;71.32;51.30;;;19.30;77.90;;;;;;4955163;28;86700;-58
2022/10/22 07:08:55;;;;;;;71.43;51.17;;;19.40;77.90;;;;;;4952568;28;86202;-58
2022/10/22 07:11:27;;;;;;;70.38;50.88;;;19.30;77.90;;;;;;4959150;28;85527;-58
2022/10/22 07:13:54;;;;;;;72.05;51.05;;;19.30;77.90;;;;;;4956358;28;87384;-58
2022/10/22 07:16:20;;;;;;;71.35;51.85;;;19.30;77.90;;;;;;4952844;28;86514;-58
2022/10/22 07:18:46;;;;;;;72.00;51.30;;;19.30;77.90;;;;;;4948926;28;85142;-58
2022/10/22 07:21:14;;;;;;;71.45;51.08;;;19.30;77.80;;;;;;4945897;28;86498;-56
2022/10/22 07:23:40;;;;;;;71.72;51.45;;;19.30;77.90;;;;;;4950538;28;86924;-57
2022/10/22 07:26:07;;;;;;;71.78;51.35;;;19.30;77.90;;;;;;4962433;28;85468;-57
2022/10/22 07:28:35;;;;;;;71.78;51.15;;;19.30;77.80;;;;;;4958613;28;87596;-56
2022/10/22 07:31:01;;;;;;;70.18;50.75;;;19.30;77.80;;;;;;4956266;28;86383;-58
2022/10/22 07:33:27;;;;;;;72.13;51.75;;;19.30;77.80;;;;;;4949307;28;85435;-58
2022/10/22 07:36:04;;;;;;;70.38;51.25;;;19.30;77.90;;;;;;4956004;28;89248;-58
2022/10/22 07:38:30;;;;;;;71.30;51.35;;;19.40;77.80;;;;;;4958261;28;85875;-59
2022/10/22 07:40:56;;;;;;;71.72;51.28;;;19.30;77.80;;;;;;4955206;28;85633;-58
2022/10/22 07:43:22;;;;;;;70.60;51.35;;;19.40;77.80;;;;;;4950111;28;86031;-57
2022/10/22 07:45:48;;;;;;;70.43;51.17;;;19.40;77.80;;;;;;4951004;28;90481;-57
2022/10/22 07:48:13;;;;;;;72.63;51.58;;;19.40;77.80;;;;;;4949128;28;86601;-56
2022/10/22 07:50:39;;;;;;;70.55;50.92;;;19.30;77.60;;;;;;4944438;28;90950;-58
2022/10/22 07:53:05;;;;;;;70.93;50.90;;;19.30;77.80;;;;;;4950207;28;87220;-57
2022/10/22 07:55:31;;;;;;;71.28;51.58;;;19.40;77.70;;;;;;4943780;28;87163;-57
2022/10/22 07:57:56;;;;;;;71.15;51.15;;;19.40;77.80;;;;;;4948720;28;85649;-57
2022/10/22 08:00:22;;;;;;;70.90;50.85;;;19.40;77.70;;;;;;4947785;28;85225;-57
2022/10/22 08:02:48;;;;;;;70.72;51.33;;;19.40;77.70;;;;;;4947836;28;87060;-59
2022/10/22 08:05:13;;;;;;;69.80;50.85;;;19.40;77.60;;;;;;4949634;28;85384;-58
2022/10/22 08:07:39;;;;;;;71.22;50.85;;;19.40;77.60;;;;;;4950629;28;85861;-56
2022/10/22 08:10:06;;;;;;;70.75;51.13;;;19.40;77.70;;;;;;4943813;28;85620;-57
2022/10/22 08:12:31;;;;;;;71.45;51.25;;;19.40;77.60;;;;;;4950065;28;86385;-58
2022/10/22 08:14:57;;;;;;;69.93;50.95;;;19.40;77.70;;;;;;4942816;28;86209;-56
2022/10/22 08:17:23;;;;;;;72.70;51.08;;;19.40;77.50;;;;;;4949685;28;85561;-57
2022/10/22 08:19:48;;;;;;;71.10;51.70;;;19.40;77.50;;;;;;4942485;28;85168;-57
2022/10/22 08:22:14;;;;;;;71.60;51.22;;;19.40;77.50;;;;;;4951285;28;86820;-58
2022/10/22 08:24:40;;;;;;;71.25;51.35;;;19.40;77.50;;;;;;4952988;28;85603;-57
2022/10/22 08:27:05;;;;;;;70.32;50.97;;;19.40;77.40;;;;;;4947843;28;85381;-58
2022/10/22 08:29:31;;;;;;;69.95;51.03;;;19.40;77.40;;;;;;4946960;28;86033;-57
2022/10/22 08:31:57;;;;;;;71.55;51.13;;;19.40;77.40;;;;;;4939380;28;87216;-56
2022/10/22 08:34:22;;;;;;;70.85;51.08;;;19.40;77.50;;;;;;4945580;28;85367;-57
2022/10/22 08:36:48;;;;;;;71.38;51.25;;;19.40;77.70;;;;;;4948290;28;85492;-57
2022/10/22 08:39:14;;;;;;;70.35;51.42;;;19.40;77.80;;;;;;4953587;28;88128;-59
2022/10/22 08:42:11;;;;;;;71.50;51.20;;;19.40;77.70;;;;;;4950091;28;85834;-58
2022/10/22 08:44:57;;;;;;;70.63;50.90;;;19.40;77.70;;;;;;4938044;28;87055;-57
2022/10/22 08:47:54;;;;;;;70.53;50.72;;;19.40;77.70;;;;;;4926686;28;85558;-56
2022/10/22 08:50:31;;;;;;;69.95;51.17;;;19.40;77.80;;;;;;4947923;28;86909;-58
2022/10/22 08:53:02;;;;;;;72.47;51.17;;;19.40;77.80;;;;;;4944698;28;91526;-57
2022/10/22 08:55:29;;;;;;;70.45;51.25;;;19.40;77.70;;;;;;4952367;28;85510;-58
2022/10/22 08:58:07;;;;;;;73.70;50.92;;;19.40;77.60;;;;;;4944867;28;87374;-58
2022/10/22 09:00:43;;;;;;;70.65;51.65;;;19.40;77.60;;;;;;4924732;28;88949;-58
2022/10/22 09:03:39;;;;;;;71.35;50.90;;;19.40;77.70;;;;;;4939889;28;90609;-58
2022/10/22 09:06:15;;;;;;;72.97;51.00;;;19.40;77.50;;;;;;4939579;28;92895;-58
2022/10/22 09:08:43;;;;;;;71.35;50.85;;;19.50;77.60;;;;;;4945674;28;85977;-57
2022/10/22 09:11:12;;;;;;;71.25;51.20;;;19.50;77.60;;;;;;4935404;28;89718;-56
2022/10/22 09:13:44;;;;;;;71.82;50.85;;;19.50;77.70;;;;;;4948153;28;87449;-56
2022/10/22 09:16:15;;;;;;;72.97;51.65;;;19.50;77.70;;;;;;4940764;28;88370;-57
2022/10/22 09:19:06;;;;;;;73.80;51.17;;;19.50;77.80;;;;;;4938948;28;86462;-57
2022/10/22 09:21:53;;;;;;;71.13;51.05;;;19.50;77.80;;;;;;4946830;28;85537;-58
2022/10/22 09:24:33;;;;;;;75.05;51.40;;;19.50;77.90;;;;;;4936404;28;91193;-58
2022/10/22 09:27:00;;;;;;;76.97;51.13;;;19.60;79.40;;;;;;4940063;28;89681;-57
2022/10/22 09:29:32;;;;;;;75.80;51.28;;;19.60;79.00;;;;;;4943531;28;86864;-55
2022/10/22 09:31:57;;;;;;;73.93;51.40;;;19.60;79.80;;;;;;4945869;28;85760;-57
2022/10/22 09:34:23;;;;;;;77.63;51.50;;;19.60;80.90;;;;;;4950448;28;87473;-57
2022/10/22 09:36:58;;;;;;;82.13;51.88;;;19.70;80.70;;;;;;4946297;28;86778;-56
2022/10/22 09:39:32;;;;;;;75.93;51.92;;;19.70;80.90;;;;;;4940072;28;87238;-56
2022/10/22 09:41:58;;;;;;;102.72;58.50;;;19.70;81.60;;;;;;4943126;28;86095;-57
2022/10/22 09:44:24;;;;;;;254.38;110.40;;;19.70;82.40;;;;;;4947180;28;87098;-57
2022/10/22 09:46:50;;;;;;;359.20;142.00;;;19.80;82.40;;;;;;4948558;28;87854;-56
2022/10/22 09:49:20;;;;;;;278.23;116.60;;;19.80;82.30;;;;;;4944371;28;90431;-56
2022/10/22 09:51:51;;;;;;;264.85;110.82;;;19.80;82.70;;;;;;4950433;28;88095;-62
2022/10/22 09:54:23;;;;;;;252.20;106.75;;;19.90;82.80;;;;;;4942090;28;88162;-57
2022/10/22 09:57:21;;;;;;;212.68;95.95;;;20.00;82.70;;;;;;4935197;28;91008;-54
2022/10/22 09:59:50;;;;;;;182.95;86.03;;;19.90;82.30;;;;;;4929043;28;87520;-55
2022/10/22 10:02:30;;;;;;;173.80;83.22;;;19.90;81.50;;;;;;4941563;28;88244;-58
2022/10/22 10:05:00;;;;;;;159.10;80.38;;;20.00;81.30;;;;;;4943650;28;85459;-57
2022/10/22 10:07:30;;;;;;;152.95;76.57;;;20.00;81.00;;;;;;4935425;28;85258;-55
2022/10/22 10:09:56;;;;;;;151.73;74.38;;;20.00;80.90;;;;;;4937284;28;87570;-58
2022/10/22 10:12:31;;;;;;;139.48;74.45;;;20.00;81.00;;;;;;4941348;28;86469;-57
2022/10/22 10:15:11;;;;;;;139.05;71.78;;;20.10;81.10;;;;;;4946929;28;85432;-57
2022/10/22 10:18:12;;;;;;;130.63;72.53;;;20.10;81.20;;;;;;4936319;28;86313;-62
2022/10/22 10:20:45;;;;;;;131.47;70.50;;;20.10;81.40;;;;;;4921936;28;87153;-56
2022/10/22 10:23:25;;;;;;;128.18;70.28;;;20.20;81.10;;;;;;4942571;28;86129;-56
2022/10/22 10:25:51;;;;;;;126.20;69.15;;;20.30;80.90;;;;;;4949039;28;85539;-58
2022/10/22 10:28:29;;;;;;;123.30;69.07;;;20.30;82.20;;;;;;4938066;28;85633;-59
2022/10/22 10:31:23;;;;;;;128.65;68.70;;;20.40;81.80;;;;;;4938990;28;86996;-59
2022/10/22 10:34:25;;;;;;;119.85;66.95;;;20.40;81.70;;;;;;4921135;28;86522;-58
2022/10/22 10:37:04;;;;;;;122.60;65.75;;;20.40;81.20;;;;;;4919461;28;91123;-59
2022/10/22 10:39:58;;;;;;;119.90;65.72;;;20.50;80.40;;;;;;4941144;28;88100;-57
2022/10/22 10:42:32;;;;;;;117.57;65.88;;;20.40;80.20;;;;;;4939633;28;87659;-58
2022/10/22 10:45:25;;;;;;;111.93;64.53;;;20.40;80.30;;;;;;4944619;28;87873;-56
2022/10/22 10:48:05;;;;;;;117.53;65.15;;;20.30;80.30;;;;;;4944141;28;86517;-58
2022/10/22 10:50:37;;;;;;;109.25;63.83;;;20.40;80.10;;;;;;4942115;28;86511;-58
2022/10/22 10:53:38;;;;;;;112.38;64.50;;;20.30;81.60;;;;;;4938299;28;86854;-59
2022/10/22 10:56:18;;;;;;;111.88;61.95;;;20.30;80.40;;;;;;4946051;28;87681;-58
2022/10/22 10:59:29;;;;;;;116.47;63.45;;;20.30;79.90;;;;;;4931543;28;87930;-58
2022/10/22 11:02:33;;;;;;;109.68;62.78;;;20.30;79.80;;;;;;4926112;28;91336;-58
2022/10/22 11:05:11;;;;;;;108.40;61.83;;;20.30;79.40;;;;;;4901519;28;86953;-58
2022/10/22 11:07:50;;;;;;;109.45;62.47;;;20.20;79.50;;;;;;4901007;28;85544;-59
2022/10/22 11:10:38;;;;;;;103.05;62.38;;;20.20;79.20;;;;;;4918745;28;85759;-59
2022/10/22 11:13:19;;;;;;;103.28;60.92;;;20.20;79.00;;;;;;4947416;28;85456;-58
2022/10/22 11:16:08;;;;;;;;;;;20.20;78.50;;;;;;4943915;28;89095;-59
2022/10/22 11:18:47;;;;;;;101.10;60.60;;;20.20;78.40;;;;;;4936841;28;86037;-58
2022/10/22 11:21:33;;;;;;;100.53;60.10;;;20.20;78.30;;;;;;4935468;28;85494;-57
2022/10/22 11:24:07;;;;;;;95.28;59.53;;;20.20;78.20;;;;;;4942156;28;87001;-55
2022/10/22 11:26:51;;;;;;;105.90;60.42;;;20.20;78.10;;;;;;4947152;28;85427;-58
2022/10/22 11:29:24;;;;;;;94.75;58.60;;;20.20;78.10;;;;;;4949715;28;89625;-56
2022/10/22 11:31:53;;;;;;;96.57;59.13;;;20.20;77.90;;;;;;4945054;28;89635;-58
2022/10/22 11:34:33;;;;;;;91.68;58.03;;;20.10;77.70;;;;;;4945727;28;86525;-57
2022/10/22 11:37:00;;;;;;;88.90;57.97;;;20.10;77.60;;;;;;4941607;28;86972;-58
2022/10/22 11:39:30;;;;;;;92.03;57.75;;;20.20;77.50;;;;;;4946513;28;85128;-58
2022/10/22 11:42:03;;;;;;;94.13;57.72;;;20.10;77.30;;;;;;4943015;28;86174;-59
2022/10/22 11:44:29;;;;;;;91.32;57.63;;;20.20;77.20;;;;;;4956902;28;85891;-58
2022/10/22 11:46:58;;;;;;;92.55;57.00;;;20.10;77.20;;;;;;4939071;28;85430;-59
2022/10/22 11:49:53;;;;;;;89.43;57.03;;;20.10;77.00;;;;;;4946666;28;87534;-59
2022/10/22 11:52:31;;;;;;;90.60;56.80;;;20.10;77.20;;;;;;4945328;28;88257;-59
2022/10/22 11:55:00;;;;;;;86.60;56.75;;;20.20;77.90;;;;;;4929073;28;87154;-58
2022/10/22 11:57:37;;;;;;;87.20;56.42;;;20.20;78.30;;;;;;4937031;28;85803;-58
2022/10/22 12:00:28;;;;;;;91.45;56.20;;;20.10;78.10;;;;;;4942152;28;89743;-59
2022/10/22 12:03:34;;;;;;;89.32;55.78;;;20.10;77.90;;;;;;4944435;28;85421;-59
2022/10/22 12:06:11;;;;;;;88.05;55.60;;;20.20;78.00;;;;;;4941636;28;85523;-58
2022/10/22 12:08:52;;;;;;;82.85;55.42;;;20.20;77.90;;;;;;4949853;28;87160;-58
2022/10/22 12:11:25;;;;;;;82.63;54.20;;;20.30;77.80;;;;;;4941121;28;86005;-59
2022/10/22 12:14:17;;;;;;;88.32;55.03;;;20.30;77.30;;;;;;4941972;28;90106;-59
2022/10/22 12:16:49;;;;;;;84.22;55.22;;;20.30;77.20;;;;;;4948156;28;85377;-58
2022/10/22 12:19:22;;;;;;;86.75;55.78;;;20.30;77.20;;;;;;4939506;28;87971;-58
2022/10/22 12:22:11;;;;;;;87.93;54.95;;;20.30;77.20;;;;;;4948276;28;86234;-61
2022/10/22 12:24:44;;;;;;;89.68;55.20;;;20.30;77.10;;;;;;4944439;28;86694;-58
2022/10/22 12:27:23;;;;;;;87.50;55.20;;;20.30;77.00;;;;;;4933897;28;85217;-59
2022/10/22 12:29:56;;;;;;;83.25;54.70;;;20.30;76.90;;;;;;4944571;28;92360;-58
2022/10/22 12:32:21;;;;;;;83.70;54.42;;;20.30;77.30;;;;;;4947971;28;85629;-58
2022/10/22 12:34:50;;;;;;;86.72;55.38;;;20.30;77.10;;;;;;4945589;28;86001;-58
2022/10/22 12:37:17;;;;;;;88.07;54.60;;;20.40;77.60;;;;;;4942324;28;87102;-54
2022/10/22 12:39:44;;;;;;;84.07;54.65;;;20.40;78.00;;;;;;4955622;28;85184;-59
2022/10/22 12:42:15;;;;;;;86.50;55.30;;;20.50;78.60;;;;;;4951550;28;86262;-58
2022/10/22 12:44:45;;;;;;;86.28;54.40;;;20.50;80.10;;;;;;4942185;28;87185;-56